Surface observations / Europe / LICJ

Quebec | Canada | USA | France | UK | Europe | Elsewhere

Display: Info & Location for LICJ | Help decoding METAR

LICJ PALERMO/POINT RAISI -- IY
Raw surface observations for station LICJ
LICJ 230920Z 31006KT 9999 SCT006 BKN011 16/16 Q1013=
LICJ 230850Z 32008KT 9000 SCT005 BKN015 16/15 Q1012=
LICJ 230820Z 31012KT 7000 -RA SCT005 BKN009 16/15 Q1012=
LICJ 230750Z 33010KT 9000 SCT008 BKN015 16/16 Q1012=
LICJ 230720Z 33010KT 9000 SCT010 BKN030 16/15 Q1012=
LICJ 230650Z 35011KT 8000 -RA SCT012 BKN022 16/15 Q1012=
LICJ 230620Z 33008KT 7000 -RA SCT008 BKN015 16/16 Q1012 RERA WS RWY25=
LICJ 230550Z 30004KT 270V330 6000 RA SCT006 BKN014 16/16 Q1012 WS RWY25=
LICJ 230520Z 27004KT 6000 RA SCT006 BKN020 16/15 Q1012=
LICJ 230450Z 29008KT 7000 RA SCT008 BKN025 16/16 Q1012=
LICJ 230420Z 31009KT 7000 RA FEW004 SCT010 BKN025 16/16 Q1012=
LICJ 230350Z 30009KT 6000 RA SCT006 BKN020 16/16 Q1012=
LICJ 230320Z 29010KT 5000 +RA SCT004 BKN025 16/16 Q1012=
LICJ 230250Z 31008KT 6000 RA SCT008 BKN030 16/16 Q1012=
LICJ 230220Z 31011KT 7000 RA SCT010 SCT040 16/16 Q1012=
LICJ 230150Z 35006KT 9000 RA SCT008 BKN060 16/15 Q1012=
LICJ 230120Z 33008KT 9999 SCT025 SCT060 16/16 Q1011=
LICJ 230050Z 20004KT 170V260 9999 -DZRA SCT025 SCT060 16/15 Q1011=
LICJ 230020Z 23006KT 9999 -DZRA SCT025 SCT060 16/15 Q1012=
LICJ 222350Z 20008KT 170V230 9999 -DZRA SCT025 SCT060 16/14 Q1013=
LICJ 222320Z 19006KT 130V220 9999 SCT025 SCT060 17/14 Q1012=
LICJ 222250Z 07009KT 9999 SCT025 SCT060 17/13 Q1012=
LICJ 222220Z 05004KT 7000 RA SCT025 SCT040 16/15 Q1013=
LICJ 222150Z 14010KT 7000 RA SCT025 SCT040 17/14 Q1014=
LICJ 222120Z 18011KT 150V210 8000 RA SCT025 SCT040 17/14 Q1014=
LICJ 222050Z 19012KT 7000 RA SCT022 SCT035 17/14 Q1013=
LICJ 222020Z 22008KT 9000 RA FEW025 SCT040 17/15 Q1013=
LICJ 221950Z 21014KT 9000 RA FEW025 SCT040 17/14 Q1013=
LICJ 221920Z 22015KT CAVOK 18/14 Q1012=
LICJ 221850Z 19019KT 9999 SCT060 19/13 Q1012=
LICJ 221820Z 19021KT 9999 -DZ NSC 19/13 Q1012=
LICJ 221750Z 19022KT 9999 -DZ SCT065 20/13 Q1011=
LICJ 221720Z 20022KT 9999 -DZ SCT065 21/13 Q1011=
LICJ 221650Z 19019KT 9999 SCT065 22/11 Q1010=
LICJ 221620Z 19022KT 160V220 9999 SCT065 23/11 Q1010=
LICJ 221550Z 20016KT 160V220 CAVOK 23/13 Q1009=
LICJ 221520Z 26014KT CAVOK 18/14 Q1009=
LICJ 221450Z 24015KT 9999 SCT065 17/15 Q1009=
LICJ 221420Z 24013KT 9999 SCT065 18/14 Q1009=
LICJ 221350Z 02004KT CAVOK 18/15 Q1009=
LICJ 221320Z 05007KT CAVOK 18/14 Q1009=
LICJ 221250Z 07014KT CAVOK 18/14 Q1008=
LICJ 221220Z 06012KT CAVOK 19/14 Q1008=
LICJ 221150Z 36004KT 280V040 CAVOK 18/13 Q1009=
LICJ 221120Z 32003KT 270V360 9999 FEW060 18/14 Q1009=
LICJ 221050Z 24009KT 9999 FEW065 18/13 Q1009=
LICJ 221020Z 07010KT CAVOK 21/10 Q1008=
LICJ 220950Z 32003KT 290V030 CAVOK 18/12 Q1009=
LICJ 220920Z 02004KT 9999 FEW065 18/14 Q1009=
LICJ 220850Z 29006KT CAVOK 17/14 Q1010 RMK VIS MIN 9999SW=